createdAt,value
2022-11-15T00:02:39.776Z,2.63
2022-11-15T00:05:26.870Z,2.50
2022-11-15T00:08:13.790Z,2.33
2022-11-15T00:11:02.218Z,2.45
2022-11-15T00:13:50.774Z,2.60
2022-11-15T00:16:37.401Z,2.78
2022-11-15T00:19:23.893Z,2.63
2022-11-15T00:22:10.679Z,2.88
2022-11-15T00:24:57.431Z,2.60
2022-11-15T00:27:44.251Z,2.75
2022-11-15T00:30:32.636Z,2.30
2022-11-15T00:33:19.835Z,2.50
2022-11-15T00:36:10.280Z,2.40
2022-11-15T00:38:57.391Z,3.10
2022-11-15T00:41:44.741Z,2.75
2022-11-15T00:44:31.586Z,2.33
2022-11-15T00:47:19.668Z,2.35
2022-11-15T00:50:07.559Z,2.60
2022-11-15T00:52:54.063Z,2.50
2022-11-15T00:55:41.001Z,2.70
2022-11-15T00:58:27.839Z,2.53
2022-11-15T01:01:16.328Z,2.40
2022-11-15T01:04:04.751Z,2.65
2022-11-15T01:06:51.415Z,2.50
2022-11-15T01:09:38.162Z,2.60
2022-11-15T01:12:24.908Z,2.67
2022-11-15T01:15:12.225Z,2.60
2022-11-15T01:17:59.026Z,2.75
2022-11-15T01:20:47.281Z,2.50
2022-11-15T01:23:34.373Z,2.63
2022-11-15T01:26:21.322Z,2.50
2022-11-15T01:29:07.977Z,2.42
2022-11-15T01:31:55.343Z,2.30
2022-11-15T01:34:42.070Z,2.80
2022-11-15T01:37:30.080Z,2.53
2022-11-15T01:40:16.897Z,2.72
2022-11-15T01:43:21.906Z,2.58
2022-11-15T01:46:20.188Z,2.53
2022-11-15T01:49:14.593Z,3.00
2022-11-15T01:52:02.200Z,2.42
2022-11-15T01:54:52.578Z,2.25
2022-11-15T01:57:40.145Z,2.40
2022-11-15T02:00:27.327Z,2.47
2022-11-15T02:03:15.999Z,2.58
2022-11-15T02:06:03.832Z,2.63
2022-11-15T02:08:51.883Z,2.58
2022-11-15T02:11:39.809Z,2.50
2022-11-15T02:14:29.775Z,2.38
2022-11-15T02:17:34.204Z,2.20
2022-11-15T02:20:54.557Z,2.65
2022-11-15T02:24:20.830Z,2.53
2022-11-15T02:27:35.907Z,2.67
2022-11-15T02:30:36.029Z,2.40
2022-11-15T02:33:34.735Z,2.63
2022-11-15T02:36:33.768Z,2.30
2022-11-15T02:39:28.136Z,2.60
2022-11-15T02:42:37.591Z,2.92
2022-11-15T02:45:30.090Z,2.60
2022-11-15T02:48:18.724Z,2.35
2022-11-15T02:51:06.061Z,2.60
2022-11-15T02:53:52.659Z,2.38
2022-11-15T02:56:39.539Z,2.55
2022-11-15T03:00:15.992Z,2.50
2022-11-15T03:03:24.024Z,2.60
2022-11-15T03:06:23.278Z,2.83
2022-11-15T03:09:17.021Z,2.72
2022-11-15T03:12:11.652Z,2.38
2022-11-15T03:15:04.360Z,2.65
2022-11-15T03:17:56.054Z,3.00
2022-11-15T03:20:46.194Z,2.67
2022-11-15T03:23:33.885Z,2.80
2022-11-15T03:26:25.679Z,2.90
2022-11-15T03:29:16.772Z,3.20
2022-11-15T03:32:10.100Z,3.00
2022-11-15T03:35:00.988Z,2.90
2022-11-15T03:37:54.298Z,3.10
2022-11-15T03:40:42.847Z,2.95
2022-11-15T03:43:41.879Z,2.92
2022-11-15T03:46:34.453Z,3.00
2022-11-15T03:49:26.423Z,2.97
2022-11-15T03:52:13.804Z,3.05
2022-11-15T03:55:03.700Z,3.45
2022-11-15T03:57:53.208Z,2.88
2022-11-15T04:00:39.738Z,3.00
2022-11-15T04:03:26.650Z,3.13
2022-11-15T04:06:13.163Z,3.50
2022-11-15T04:09:06.425Z,3.15
2022-11-15T04:11:54.482Z,3.47
2022-11-15T04:15:01.645Z,3.53
2022-11-15T04:17:50.346Z,3.40
2022-11-15T04:20:54.947Z,3.20
2022-11-15T04:24:01.711Z,3.10
2022-11-15T04:26:48.585Z,3.65
2022-11-15T04:29:36.624Z,3.92
2022-11-15T04:32:23.631Z,3.40
2022-11-15T04:35:10.584Z,3.22
2022-11-15T04:37:57.806Z,3.40
2022-11-15T04:40:44.522Z,3.55
2022-11-15T04:43:32.287Z,3.22
2022-11-15T04:46:20.830Z,3.75
2022-11-15T04:49:07.540Z,3.78
2022-11-15T04:51:54.297Z,3.97
2022-11-15T04:54:43.022Z,3.28
2022-11-15T04:57:29.799Z,3.65
2022-11-15T05:00:18.851Z,3.80
2022-11-15T05:03:24.486Z,4.38
2022-11-15T05:06:11.359Z,4.35
2022-11-15T05:08:58.438Z,4.28
2022-11-15T05:11:46.402Z,4.13
2022-11-15T05:14:33.363Z,4.18
2022-11-15T05:17:20.363Z,4.30
2022-11-15T05:20:09.952Z,4.88
2022-11-15T05:22:56.567Z,4.43
2022-11-15T05:25:43.536Z,4.13
2022-11-15T05:28:30.590Z,4.43
2022-11-15T05:31:18.264Z,3.78
2022-11-15T05:34:07.384Z,3.63
2022-11-15T05:36:55.982Z,3.75
2022-11-15T05:39:42.753Z,4.25
2022-11-15T05:42:29.977Z,3.97
2022-11-15T05:45:17.949Z,3.58
2022-11-15T05:48:10.696Z,3.22
2022-11-15T05:50:58.295Z,5.00
2022-11-15T05:53:47.648Z,4.28
2022-11-15T05:56:34.707Z,4.05
2022-11-15T05:59:21.525Z,3.97
2022-11-15T06:02:08.514Z,3.60
2022-11-15T06:04:55.225Z,4.00
2022-11-15T06:07:41.983Z,4.70
2022-11-15T06:10:30.307Z,5.68
2022-11-15T06:13:17.115Z,5.00
2022-11-15T06:16:03.921Z,5.50
2022-11-15T06:18:51.351Z,4.50
2022-11-15T06:21:37.928Z,4.95
2022-11-15T06:24:24.917Z,4.22
2022-11-15T06:27:13.156Z,4.57
2022-11-15T06:29:59.990Z,3.97
2022-11-15T06:32:46.825Z,4.10
2022-11-15T06:35:36.296Z,4.10
2022-11-15T06:38:23.196Z,3.95
2022-11-15T06:41:11.793Z,3.55
2022-11-15T06:44:00.176Z,3.53
2022-11-15T06:46:47.159Z,3.67
2022-11-15T06:49:34.135Z,3.40
2022-11-15T06:52:20.912Z,3.10
2022-11-15T06:55:09.430Z,2.92
2022-11-15T06:57:56.262Z,3.13
2022-11-15T07:00:44.555Z,3.03
2022-11-15T07:03:31.906Z,2.75
2022-11-15T07:06:19.305Z,3.40
2022-11-15T07:09:06.277Z,2.92
2022-11-15T07:11:52.892Z,2.88
2022-11-15T07:14:39.406Z,3.15
2022-11-15T07:17:27.406Z,3.25
2022-11-15T07:20:15.390Z,3.22
2022-11-15T07:23:03.097Z,3.15
2022-11-15T07:25:49.594Z,3.03
2022-11-15T07:28:36.921Z,2.80
2022-11-15T07:31:24.527Z,3.22
2022-11-15T07:34:13.176Z,3.25
2022-11-15T07:37:00.933Z,3.50
2022-11-15T07:39:47.946Z,3.42
2022-11-15T07:42:52.629Z,3.13
2022-11-15T07:45:43.641Z,3.05
2022-11-15T07:48:42.665Z,3.72
2022-11-15T07:51:31.800Z,3.53
2022-11-15T07:54:18.471Z,2.88
2022-11-15T07:57:07.639Z,2.83
2022-11-15T07:59:55.235Z,3.00
2022-11-15T08:02:42.664Z,2.90
2022-11-15T08:05:29.658Z,2.88
2022-11-15T08:08:17.631Z,2.88
2022-11-15T08:11:05.381Z,3.40
2022-11-15T08:13:52.495Z,2.83
2022-11-15T08:16:39.835Z,2.83
2022-11-15T08:19:26.496Z,2.90
2022-11-15T08:22:14.042Z,3.05
2022-11-15T08:25:02.587Z,3.10
2022-11-15T08:27:49.361Z,2.78
2022-11-15T08:30:38.538Z,2.75
2022-11-15T08:33:26.756Z,3.42
2022-11-15T08:36:15.920Z,2.90
2022-11-15T08:39:02.454Z,2.83
2022-11-15T08:41:50.528Z,3.00
2022-11-15T08:44:37.464Z,3.72
2022-11-15T08:47:24.994Z,2.72
2022-11-15T08:50:11.803Z,3.30
2022-11-15T08:52:58.791Z,3.30
2022-11-15T08:55:45.194Z,3.47
2022-11-15T08:58:33.639Z,3.45
2022-11-15T09:01:22.439Z,3.40
2022-11-15T09:04:09.054Z,4.10
2022-11-15T09:06:55.841Z,3.20
2022-11-15T09:09:42.693Z,3.83
2022-11-15T09:12:29.620Z,3.15
2022-11-15T09:15:18.482Z,3.88
2022-11-15T09:18:05.429Z,3.40
2022-11-15T09:20:52.072Z,3.60
2022-11-15T09:23:39.258Z,3.47
2022-11-15T09:26:25.908Z,3.35
2022-11-15T09:29:12.799Z,3.67
2022-11-15T09:32:01.063Z,3.72
2022-11-15T09:34:51.720Z,3.75
2022-11-15T09:37:38.795Z,3.20
2022-11-15T09:40:27.206Z,3.50
2022-11-15T09:43:31.251Z,3.58
2022-11-15T09:46:38.249Z,3.33
2022-11-15T09:49:27.540Z,3.35
2022-11-15T09:52:20.088Z,3.60
2022-11-15T09:54:53.713Z,3.67
2022-11-15T09:57:29.457Z,3.97
2022-11-15T10:00:38.812Z,3.50
2022-11-15T10:03:10.525Z,3.85
2022-11-15T10:05:42.424Z,3.47
2022-11-15T10:08:23.136Z,3.22
2022-11-15T10:11:15.855Z,3.90
2022-11-15T10:13:46.283Z,3.88
2022-11-15T10:16:43.280Z,3.90
2022-11-15T10:19:20.981Z,3.35
2022-11-15T10:21:58.338Z,3.78
2022-11-15T10:24:29.544Z,3.80
2022-11-15T10:26:58.122Z,3.42
2022-11-15T10:29:27.633Z,3.08
2022-11-15T10:31:55.988Z,3.20
2022-11-15T10:34:25.902Z,3.10
2022-11-15T10:36:59.451Z,2.72
2022-11-15T10:39:28.291Z,2.92
2022-11-15T10:41:57.977Z,2.75
2022-11-15T10:44:29.115Z,2.72
2022-11-15T10:47:25.930Z,3.42
2022-11-15T10:50:01.941Z,3.15
2022-11-15T10:52:33.432Z,3.05
2022-11-15T10:55:06.854Z,3.17
2022-11-15T10:57:38.656Z,2.83
2022-11-15T11:00:28.002Z,3.00
2022-11-15T11:03:00.611Z,2.42
2022-11-15T11:05:36.422Z,2.63
2022-11-15T11:08:25.574Z,3.10
2022-11-15T11:11:02.770Z,3.03
2022-11-15T11:13:33.046Z,2.97
2022-11-15T11:16:22.223Z,2.97
2022-11-15T11:18:59.722Z,2.97
2022-11-15T11:21:39.913Z,2.83
2022-11-15T11:24:19.607Z,3.13
2022-11-15T11:26:59.176Z,2.63
2022-11-15T11:29:40.789Z,2.72
2022-11-15T11:32:27.995Z,2.55
2022-11-15T11:35:04.678Z,2.72
2022-11-15T11:37:38.922Z,2.90
2022-11-15T11:40:22.021Z,2.38
2022-11-15T11:43:00.242Z,2.20
2022-11-15T11:46:04.297Z,2.33
2022-11-15T11:48:43.240Z,2.67
2022-11-15T11:51:19.621Z,2.35
2022-11-15T11:53:53.113Z,2.10
2022-11-15T11:56:27.276Z,2.05
2022-11-15T11:58:57.932Z,1.58
2022-11-15T12:01:28.988Z,1.67
2022-11-15T12:04:00.739Z,1.40
2022-11-15T12:06:34.289Z,1.45
2022-11-15T12:09:08.957Z,1.30
2022-11-15T12:11:46.161Z,1.38
2022-11-15T12:14:24.025Z,1.30
2022-11-15T12:16:52.274Z,1.33
2022-11-15T12:19:20.669Z,1.27
2022-11-15T12:21:55.183Z,1.17
2022-11-15T12:24:28.321Z,1.42
2022-11-15T12:27:04.306Z,1.00
2022-11-15T12:29:39.225Z,1.30
2022-11-15T12:32:17.062Z,1.20
2022-11-15T12:34:48.744Z,1.20
2022-11-15T12:37:53.531Z,1.20
2022-11-15T12:40:31.078Z,1.23
2022-11-15T12:43:03.942Z,1.05
2022-11-15T12:45:34.748Z,1.00
2022-11-15T12:48:40.651Z,1.05
2022-11-15T12:51:09.033Z,0.98
2022-11-15T12:53:37.319Z,1.20
2022-11-15T12:56:25.006Z,0.90
2022-11-15T12:58:57.625Z,1.10
2022-11-15T13:02:08.574Z,1.20
2022-11-15T13:04:36.859Z,1.13
2022-11-15T13:07:30.824Z,1.00
2022-11-15T13:09:59.159Z,0.77
2022-11-15T13:12:53.807Z,1.10
2022-11-15T13:15:55.441Z,1.08
2022-11-15T13:18:54.886Z,1.00
2022-11-15T13:21:44.117Z,1.20
2022-11-15T13:24:18.428Z,1.02
2022-11-15T13:26:47.868Z,1.13
2022-11-15T13:29:19.578Z,1.20
2022-11-15T13:31:50.287Z,1.27
2022-11-15T13:34:50.523Z,0.98
2022-11-15T13:37:32.067Z,1.40
2022-11-15T13:40:20.955Z,1.73
2022-11-15T13:42:49.553Z,1.50
2022-11-15T13:45:19.747Z,1.27
2022-11-15T13:47:56.707Z,1.40
2022-11-15T13:50:30.492Z,1.33
2022-11-15T13:53:03.237Z,1.50
2022-11-15T13:55:34.741Z,1.38
2022-11-15T13:58:10.402Z,1.30
2022-11-15T14:00:41.649Z,1.60
2022-11-15T14:03:24.407Z,1.30
2022-11-15T14:06:07.448Z,1.52
2022-11-15T14:08:36.879Z,1.88
2022-11-15T14:11:10.283Z,1.58
2022-11-15T14:13:38.979Z,1.55
2022-11-15T14:16:19.513Z,1.52
2022-11-15T14:18:51.742Z,1.23
2022-11-15T14:21:21.478Z,1.50
2022-11-15T14:23:51.632Z,1.50
2022-11-15T14:26:37.818Z,1.40
2022-11-15T14:29:24.253Z,1.38
2022-11-15T14:31:52.995Z,1.20
2022-11-15T14:34:23.307Z,1.38
2022-11-15T14:36:51.524Z,1.67
2022-11-15T14:39:19.924Z,1.60
2022-11-15T14:41:48.625Z,1.33
2022-11-15T14:44:19.481Z,1.35
2022-11-15T14:46:49.066Z,1.45
2022-11-15T14:49:17.649Z,1.25
2022-11-15T14:51:47.204Z,1.58
2022-11-15T14:54:15.774Z,1.65
2022-11-15T14:56:44.601Z,1.67
2022-11-15T14:59:13.293Z,1.38
2022-11-15T15:01:41.970Z,1.48
2022-11-15T15:04:12.279Z,1.40
2022-11-15T15:06:40.970Z,1.40
2022-11-15T15:09:10.740Z,1.00
2022-11-15T15:11:39.202Z,1.30
2022-11-15T15:14:07.431Z,1.10
2022-11-15T15:16:35.707Z,1.10
2022-11-15T15:19:04.777Z,1.33
2022-11-15T15:21:37.053Z,1.27
2022-11-15T15:24:05.867Z,1.27
2022-11-15T15:26:37.349Z,1.08
2022-11-15T15:29:07.753Z,1.10
2022-11-15T15:31:36.285Z,1.00
2022-11-15T15:34:05.126Z,1.27
2022-11-15T15:36:33.388Z,1.30
2022-11-15T15:39:01.554Z,1.30
2022-11-15T15:41:30.014Z,1.83
2022-11-15T15:43:59.531Z,1.20
2022-11-15T15:46:27.763Z,1.20
2022-11-15T15:48:56.193Z,1.23
2022-11-15T15:51:24.779Z,1.17
2022-11-15T15:53:58.189Z,1.35
2022-11-15T15:56:26.663Z,1.73
2022-11-15T15:58:56.394Z,1.85
2022-11-15T16:01:26.221Z,1.30
2022-11-15T16:03:54.615Z,1.48
2022-11-15T16:06:40.058Z,1.45
2022-11-15T16:09:15.778Z,1.58
2022-11-15T16:11:46.223Z,1.48
2022-11-15T16:14:15.149Z,1.40
2022-11-15T16:16:44.710Z,1.30
2022-11-15T16:19:13.971Z,1.70
2022-11-15T16:21:42.329Z,1.45
2022-11-15T16:24:10.786Z,1.40
2022-11-15T16:26:39.739Z,1.40
2022-11-15T16:29:10.108Z,1.30
2022-11-15T16:31:39.833Z,1.40
2022-11-15T16:34:09.420Z,1.50
2022-11-15T16:36:37.847Z,1.30
2022-11-15T16:39:06.320Z,1.40
2022-11-15T16:41:36.261Z,1.60
2022-11-15T16:44:04.537Z,1.63
2022-11-15T16:46:33.020Z,1.27
2022-11-15T16:49:01.297Z,1.30
2022-11-15T16:51:30.889Z,1.02
2022-11-15T16:53:59.397Z,1.05
2022-11-15T16:56:29.144Z,1.42
2022-11-15T16:58:58.924Z,1.10
2022-11-15T17:01:30.267Z,6.10
2022-11-15T17:03:59.285Z,2.15
2022-11-15T17:06:28.467Z,1.88
2022-11-15T17:08:58.136Z,2.85
2022-11-15T17:11:26.349Z,9.70
2022-11-15T17:13:59.259Z,5.72
2022-11-15T17:16:27.787Z,2.20
2022-11-15T17:18:56.026Z,3.00
2022-11-15T17:21:24.828Z,1.50
2022-11-15T17:23:53.429Z,1.35
2022-11-15T17:26:30.234Z,1.30
2022-11-15T17:29:01.310Z,1.48
2022-11-15T17:31:31.512Z,1.30
2022-11-15T17:33:59.889Z,1.40
2022-11-15T17:36:28.210Z,1.40
2022-11-15T17:38:59.672Z,1.80
2022-11-15T17:41:30.141Z,2.50
2022-11-15T17:43:59.994Z,2.08
2022-11-15T17:46:29.618Z,2.80
2022-11-15T17:48:58.733Z,2.58
2022-11-15T17:51:27.283Z,1.98
2022-11-15T17:53:56.953Z,2.10
2022-11-15T17:56:26.783Z,2.13
2022-11-15T17:58:58.212Z,1.80
2022-11-15T18:01:27.959Z,2.30
2022-11-15T18:03:57.508Z,2.35
2022-11-15T18:06:26.535Z,2.63
2022-11-15T18:08:56.831Z,2.40
2022-11-15T18:11:26.345Z,2.45
2022-11-15T18:13:59.030Z,2.05
2022-11-15T18:16:30.915Z,1.95
2022-11-15T18:18:59.891Z,1.40
2022-11-15T18:21:29.895Z,1.90
2022-11-15T18:24:00.843Z,1.65
2022-11-15T18:26:30.822Z,1.50
2022-11-15T18:29:05.589Z,1.70
2022-11-15T18:31:34.531Z,2.00
2022-11-15T18:34:02.898Z,1.95
2022-11-15T18:36:32.112Z,1.88
2022-11-15T18:39:03.603Z,1.77
2022-11-15T18:41:33.866Z,1.60
2022-11-15T18:44:04.107Z,1.90
2022-11-15T18:46:33.619Z,1.80
2022-11-15T18:49:03.073Z,1.83
2022-11-15T18:51:32.348Z,1.85
2022-11-15T18:54:06.772Z,1.67
2022-11-15T18:56:35.178Z,1.65
2022-11-15T18:59:05.218Z,1.70
2022-11-15T19:01:34.948Z,2.05
2022-11-15T19:04:06.722Z,2.03
2022-11-15T19:06:38.730Z,2.15
2022-11-15T19:09:07.658Z,2.10
2022-11-15T19:11:39.387Z,2.40
2022-11-15T19:14:10.409Z,2.17
2022-11-15T19:16:40.706Z,3.10
2022-11-15T19:19:13.820Z,3.03
2022-11-15T19:21:42.179Z,5.15
2022-11-15T19:24:10.592Z,4.28
2022-11-15T19:26:39.477Z,3.35
2022-11-15T19:29:10.998Z,2.80
2022-11-15T19:31:39.629Z,2.42
2022-11-15T19:34:08.497Z,2.42
2022-11-15T19:36:39.473Z,2.33
2022-11-15T19:39:10.336Z,2.58
2022-11-15T19:41:40.679Z,2.80
2022-11-15T19:44:11.107Z,2.50
2022-11-15T19:46:39.883Z,2.65
2022-11-15T19:49:10.511Z,3.20
2022-11-15T19:51:41.454Z,3.00
2022-11-15T19:54:10.894Z,2.47
2022-11-15T19:56:40.418Z,2.42
2022-11-15T19:59:11.781Z,2.55
2022-11-15T20:01:40.612Z,2.45
2022-11-15T20:04:10.033Z,2.67
2022-11-15T20:06:40.581Z,2.72
2022-11-15T20:09:09.359Z,3.00
2022-11-15T20:11:39.320Z,2.63
2022-11-15T20:14:09.420Z,3.42
2022-11-15T20:16:39.268Z,3.47
2022-11-15T20:19:08.695Z,3.05
2022-11-15T20:21:37.036Z,3.40
2022-11-15T20:24:05.782Z,3.60
2022-11-15T20:26:35.525Z,3.42
2022-11-15T20:29:03.963Z,3.20
2022-11-15T20:31:32.913Z,3.10
2022-11-15T20:34:02.573Z,3.75
2022-11-15T20:36:30.691Z,3.97
2022-11-15T20:39:00.111Z,3.40
2022-11-15T20:41:29.069Z,4.70
2022-11-15T20:43:57.583Z,6.25
2022-11-15T20:46:25.788Z,8.20
2022-11-15T20:48:53.943Z,7.53
2022-11-15T20:51:23.497Z,4.88
2022-11-15T20:53:52.959Z,4.47
2022-11-15T20:56:22.735Z,5.05
2022-11-15T20:58:51.548Z,4.43
2022-11-15T21:01:23.745Z,4.30
2022-11-15T21:03:53.863Z,4.72
2022-11-15T21:06:24.375Z,4.82
2022-11-15T21:09:11.035Z,4.65
2022-11-15T21:11:57.453Z,4.38
2022-11-15T21:14:26.072Z,4.65
2022-11-15T21:16:54.205Z,5.03
2022-11-15T21:19:27.228Z,4.53
2022-11-15T21:22:00.995Z,4.32
2022-11-15T21:24:29.383Z,4.78
2022-11-15T21:26:57.481Z,4.55
2022-11-15T21:29:25.787Z,5.22
2022-11-15T21:31:54.171Z,19.35
2022-11-15T21:34:22.732Z,7.28
2022-11-15T21:36:50.840Z,9.15
2022-11-15T21:39:20.528Z,16.35
2022-11-15T21:41:49.616Z,8.00
2022-11-15T21:44:17.834Z,6.68
2022-11-15T21:46:45.982Z,6.78
2022-11-15T21:49:14.227Z,7.60
2022-11-15T21:51:42.627Z,7.60
2022-11-15T21:54:11.029Z,6.78
2022-11-15T21:56:41.734Z,6.43
2022-11-15T21:59:10.274Z,5.95
2022-11-15T22:01:59.547Z,6.00
2022-11-15T22:04:27.765Z,5.60
2022-11-15T22:06:56.022Z,6.90
2022-11-15T22:09:24.252Z,6.90
2022-11-15T22:11:53.855Z,5.80
2022-11-15T22:14:22.007Z,5.97
2022-11-15T22:16:50.281Z,6.07
2022-11-15T22:19:18.548Z,5.70
2022-11-15T22:21:46.840Z,5.28
2022-11-15T22:24:15.117Z,5.63
2022-11-15T22:26:43.461Z,5.10
2022-11-15T22:29:13.604Z,5.88
2022-11-15T22:31:41.907Z,5.05
2022-11-15T22:34:10.492Z,4.78
2022-11-15T22:37:13.213Z,4.60
2022-11-15T22:39:32.627Z,4.93
2022-11-15T22:42:01.028Z,4.88
2022-11-15T22:44:30.781Z,4.88
2022-11-15T22:46:59.219Z,5.07
2022-11-15T22:49:27.539Z,5.00
2022-11-15T22:51:55.901Z,5.10
2022-11-15T22:54:24.692Z,5.10
2022-11-15T22:56:53.335Z,5.15
2022-11-15T22:59:22.448Z,6.10
2022-11-15T23:01:52.091Z,6.32
2022-11-15T23:04:20.505Z,6.28
2022-11-15T23:06:49.297Z,7.55
2022-11-15T23:09:17.647Z,7.65
2022-11-15T23:12:03.193Z,6.90
2022-11-15T23:14:31.475Z,6.57
2022-11-15T23:17:01.180Z,6.75
2022-11-15T23:19:29.725Z,6.10
2022-11-15T23:22:15.177Z,5.97
2022-11-15T23:24:43.460Z,5.65
2022-11-15T23:27:15.121Z,5.55
2022-11-15T23:30:01.228Z,4.75
2022-11-15T23:32:48.257Z,7.15
2022-11-15T23:35:16.667Z,5.60
2022-11-15T23:37:45.004Z,4.65
2022-11-15T23:40:13.942Z,4.40
2022-11-15T23:42:42.390Z,4.15
2022-11-15T23:45:11.115Z,4.20
2022-11-15T23:47:40.716Z,3.83
2022-11-15T23:50:09.750Z,3.92
2022-11-15T23:52:38.160Z,3.78
2022-11-15T23:55:07.773Z,3.60
2022-11-15T23:57:36.099Z,3.15
